sensor_id;sensor_type;location;lat;lon;timestamp;pressure;altitude;pressure_sealevel;temperature;humidity
38163;BME280;23977;53.078;18.248;2023-04-19T00:01:34;102021.59;;;4.78;82.55
38163;BME280;23977;53.078;18.248;2023-04-19T00:04:00;102077.06;;;5.07;83.90
38163;BME280;23977;53.078;18.248;2023-04-19T00:06:26;102038.84;;;4.84;84.37
38163;BME280;23977;53.078;18.248;2023-04-19T00:08:55;102115.81;;;5.21;85.48
38163;BME280;23977;53.078;18.248;2023-04-19T00:11:23;102110.00;;;5.30;84.87
38163;BME280;23977;53.078;18.248;2023-04-19T00:13:49;102105.44;;;5.17;85.60
38163;BME280;23977;53.078;18.248;2023-04-19T00:16:15;102077.28;;;4.88;87.00
38163;BME280;23977;53.078;18.248;2023-04-19T00:18:40;101946.06;;;4.02;86.22
38163;BME280;23977;53.078;18.248;2023-04-19T00:21:07;101999.38;;;4.37;86.89
38163;BME280;23977;53.078;18.248;2023-04-19T00:23:33;102063.84;;;4.62;87.92
38163;BME280;23977;53.078;18.248;2023-04-19T00:26:02;102014.34;;;4.21;88.67
38163;BME280;23977;53.078;18.248;2023-04-19T00:28:28;102051.91;;;4.24;90.15
38163;BME280;23977;53.078;18.248;2023-04-19T00:30:53;102036.41;;;4.04;91.14
38163;BME280;23977;53.078;18.248;2023-04-19T00:33:19;102029.19;;;3.92;91.74
38163;BME280;23977;53.078;18.248;2023-04-19T00:35:45;102079.63;;;4.16;92.43
38163;BME280;23977;53.078;18.248;2023-04-19T00:38:10;102075.22;;;4.00;93.23
38163;BME280;23977;53.078;18.248;2023-04-19T00:40:36;102008.97;;;3.60;94.27
38163;BME280;23977;53.078;18.248;2023-04-19T00:43:02;102055.34;;;3.79;94.55
38163;BME280;23977;53.078;18.248;2023-04-19T00:45:28;102041.06;;;3.67;94.88
38163;BME280;23977;53.078;18.248;2023-04-19T00:47:54;102091.44;;;3.77;94.58
38163;BME280;23977;53.078;18.248;2023-04-19T00:50:20;101962.13;;;3.02;94.97
38163;BME280;23977;53.078;18.248;2023-04-19T00:52:46;102071.53;;;3.71;94.59
38163;BME280;23977;53.078;18.248;2023-04-19T00:55:12;102041.84;;;3.36;96.07
38163;BME280;23977;53.078;18.248;2023-04-19T00:57:37;101988.84;;;3.10;96.12
38163;BME280;23977;53.078;18.248;2023-04-19T01:00:04;101899.19;;;2.81;96.06
38163;BME280;23977;53.078;18.248;2023-04-19T01:02:34;101915.63;;;2.69;96.31
38163;BME280;23977;53.078;18.248;2023-04-19T01:05:01;102065.53;;;3.36;98.20
38163;BME280;23977;53.078;18.248;2023-04-19T01:07:27;102047.94;;;3.03;99.35
38163;BME280;23977;53.078;18.248;2023-04-19T01:09:52;101942.47;;;2.40;99.60
38163;BME280;23977;53.078;18.248;2023-04-19T01:12:18;102051.50;;;3.19;99.84
38163;BME280;23977;53.078;18.248;2023-04-19T01:14:44;101999.63;;;2.88;99.09
38163;BME280;23977;53.078;18.248;2023-04-19T01:17:09;102057.59;;;3.20;99.41
38163;BME280;23977;53.078;18.248;2023-04-19T01:19:35;101936.19;;;2.43;100.00
38163;BME280;23977;53.078;18.248;2023-04-19T01:22:01;102052.97;;;3.07;100.00
38163;BME280;23977;53.078;18.248;2023-04-19T01:24:30;101992.88;;;3.00;100.00
38163;BME280;23977;53.078;18.248;2023-04-19T01:26:56;101979.25;;;2.75;100.00
38163;BME280;23977;53.078;18.248;2023-04-19T01:29:22;101915.19;;;2.43;100.00
38163;BME280;23977;53.078;18.248;2023-04-19T01:31:48;101993.31;;;3.08;100.00
38163;BME280;23977;53.078;18.248;2023-04-19T01:34:21;101958.09;;;2.94;100.00
38163;BME280;23977;53.078;18.248;2023-04-19T01:36:50;101975.44;;;3.14;100.00
38163;BME280;23977;53.078;18.248;2023-04-19T01:39:16;101945.53;;;3.00;100.00
38163;BME280;23977;53.078;18.248;2023-04-19T01:41:41;102025.75;;;3.42;100.00
38163;BME280;23977;53.078;18.248;2023-04-19T01:44:07;101942.78;;;3.19;100.00
38163;BME280;23977;53.078;18.248;2023-04-19T01:46:32;101950.66;;;3.03;100.00
38163;BME280;23977;53.078;18.248;2023-04-19T01:48:59;101988.47;;;3.33;100.00
38163;BME280;23977;53.078;18.248;2023-04-19T01:51:25;101958.34;;;3.23;100.00
38163;BME280;23977;53.078;18.248;2023-04-19T01:53:50;101889.50;;;2.66;100.00
38163;BME280;23977;53.078;18.248;2023-04-19T01:56:18;101984.28;;;3.29;100.00
38163;BME280;23977;53.078;18.248;2023-04-19T01:58:44;101930.34;;;2.89;100.00
38163;BME280;23977;53.078;18.248;2023-04-19T02:01:10;101908.25;;;2.42;100.00
38163;BME280;23977;53.078;18.248;2023-04-19T02:03:38;101992.00;;;2.83;100.00
38163;BME280;23977;53.078;18.248;2023-04-19T02:06:04;101922.78;;;2.32;100.00
38163;BME280;23977;53.078;18.248;2023-04-19T02:08:30;102006.84;;;2.67;100.00
38163;BME280;23977;53.078;18.248;2023-04-19T02:10:55;101949.19;;;2.29;100.00
38163;BME280;23977;53.078;18.248;2023-04-19T02:13:21;101939.00;;;2.40;100.00
38163;BME280;23977;53.078;18.248;2023-04-19T02:15:47;101891.25;;;1.97;100.00
38163;BME280;23977;53.078;18.248;2023-04-19T02:18:13;101990.16;;;2.50;100.00
38163;BME280;23977;53.078;18.248;2023-04-19T02:20:39;101881.47;;;2.00;100.00
38163;BME280;23977;53.078;18.248;2023-04-19T02:23:05;101914.41;;;2.06;100.00
38163;BME280;23977;53.078;18.248;2023-04-19T02:25:30;101854.13;;;1.87;100.00
38163;BME280;23977;53.078;18.248;2023-04-19T02:27:56;101869.78;;;1.89;100.00
38163;BME280;23977;53.078;18.248;2023-04-19T02:30:22;101831.47;;;1.84;100.00
38163;BME280;23977;53.078;18.248;2023-04-19T02:32:48;101967.53;;;2.81;100.00
38163;BME280;23977;53.078;18.248;2023-04-19T02:35:15;101942.00;;;2.50;100.00
38163;BME280;23977;53.078;18.248;2023-04-19T02:37:42;101991.81;;;2.86;100.00
38163;BME280;23977;53.078;18.248;2023-04-19T02:40:08;101962.03;;;2.70;100.00
38163;BME280;23977;53.078;18.248;2023-04-19T02:42:35;101965.91;;;2.45;100.00
38163;BME280;23977;53.078;18.248;2023-04-19T02:45:00;101975.47;;;2.29;100.00
38163;BME280;23977;53.078;18.248;2023-04-19T02:47:26;101923.38;;;2.19;100.00
38163;BME280;23977;53.078;18.248;2023-04-19T02:49:51;101955.44;;;2.61;100.00
38163;BME280;23977;53.078;18.248;2023-04-19T02:52:17;101918.75;;;2.42;100.00
38163;BME280;23977;53.078;18.248;2023-04-19T02:54:43;101950.09;;;2.80;100.00
38163;BME280;23977;53.078;18.248;2023-04-19T02:57:10;101911.25;;;2.52;100.00
38163;BME280;23977;53.078;18.248;2023-04-19T02:59:36;101895.84;;;2.62;100.00
38163;BME280;23977;53.078;18.248;2023-04-19T03:02:02;101824.19;;;2.25;100.00
38163;BME280;23977;53.078;18.248;2023-04-19T03:04:27;101853.22;;;2.39;100.00
38163;BME280;23977;53.078;18.248;2023-04-19T03:06:53;101810.22;;;2.57;100.00
38163;BME280;23977;53.078;18.248;2023-04-19T03:09:19;101828.28;;;2.64;100.00
38163;BME280;23977;53.078;18.248;2023-04-19T03:11:45;101894.50;;;3.04;100.00
38163;BME280;23977;53.078;18.248;2023-04-19T03:14:10;101875.06;;;3.22;100.00
38163;BME280;23977;53.078;18.248;2023-04-19T03:16:36;101873.28;;;3.23;100.00
38163;BME280;23977;53.078;18.248;2023-04-19T03:19:02;101901.47;;;3.52;100.00
38163;BME280;23977;53.078;18.248;2023-04-19T03:21:28;101870.50;;;3.42;100.00
38163;BME280;23977;53.078;18.248;2023-04-19T03:23:54;101797.44;;;3.15;100.00
38163;BME280;23977;53.078;18.248;2023-04-19T03:26:20;101832.47;;;3.31;100.00
38163;BME280;23977;53.078;18.248;2023-04-19T03:28:45;101895.97;;;3.87;100.00
38163;BME280;23977;53.078;18.248;2023-04-19T03:31:11;101908.72;;;3.95;100.00
38163;BME280;23977;53.078;18.248;2023-04-19T03:33:37;101686.03;;;2.70;100.00
38163;BME280;23977;53.078;18.248;2023-04-19T03:36:03;101896.13;;;4.00;100.00
38163;BME280;23977;53.078;18.248;2023-04-19T03:38:28;101900.47;;;4.16;100.00
38163;BME280;23977;53.078;18.248;2023-04-19T03:40:54;101808.19;;;3.73;100.00
38163;BME280;23977;53.078;18.248;2023-04-19T03:43:21;101918.41;;;4.39;100.00
38163;BME280;23977;53.078;18.248;2023-04-19T03:45:49;101829.69;;;4.10;100.00
38163;BME280;23977;53.078;18.248;2023-04-19T03:48:14;101850.63;;;4.27;100.00
38163;BME280;23977;53.078;18.248;2023-04-19T03:50:40;101841.22;;;4.37;100.00
38163;BME280;23977;53.078;18.248;2023-04-19T03:53:06;101894.75;;;4.68;100.00
38163;BME280;23977;53.078;18.248;2023-04-19T03:55:31;101825.78;;;4.31;100.00
38163;BME280;23977;53.078;18.248;2023-04-19T03:57:57;101845.75;;;4.64;100.00
38163;BME280;23977;53.078;18.248;2023-04-19T04:00:24;101801.31;;;4.43;100.00
38163;BME280;23977;53.078;18.248;2023-04-19T04:02:54;101871.91;;;5.10;100.00
38163;BME280;23977;53.078;18.248;2023-04-19T04:05:19;101765.66;;;4.23;100.00
38163;BME280;23977;53.078;18.248;2023-04-19T04:07:45;101777.03;;;4.24;100.00
38163;BME280;23977;53.078;18.248;2023-04-19T04:10:11;101899.06;;;4.98;100.00
38163;BME280;23977;53.078;18.248;2023-04-19T04:12:36;101797.84;;;4.43;100.00
38163;BME280;23977;53.078;18.248;2023-04-19T04:15:02;101899.22;;;5.09;100.00
38163;BME280;23977;53.078;18.248;2023-04-19T04:17:29;101846.69;;;4.77;100.00
38163;BME280;23977;53.078;18.248;2023-04-19T04:19:55;101870.00;;;5.12;100.00
38163;BME280;23977;53.078;18.248;2023-04-19T04:22:20;101706.66;;;4.12;100.00
38163;BME280;23977;53.078;18.248;2023-04-19T04:24:46;101867.56;;;5.09;100.00
38163;BME280;23977;53.078;18.248;2023-04-19T04:27:12;101836.13;;;4.92;100.00
38163;BME280;23977;53.078;18.248;2023-04-19T04:29:38;101886.38;;;5.32;100.00
38163;BME280;23977;53.078;18.248;2023-04-19T04:32:07;101841.72;;;5.14;100.00
38163;BME280;23977;53.078;18.248;2023-04-19T04:34:35;101885.28;;;5.22;100.00
38163;BME280;23977;53.078;18.248;2023-04-19T04:37:02;101886.00;;;5.24;100.00
38163;BME280;23977;53.078;18.248;2023-04-19T04:39:28;101900.69;;;5.28;100.00
38163;BME280;23977;53.078;18.248;2023-04-19T04:41:54;101831.22;;;5.00;100.00
38163;BME280;23977;53.078;18.248;2023-04-19T04:44:22;101894.28;;;5.46;100.00
38163;BME280;23977;53.078;18.248;2023-04-19T04:46:48;101828.06;;;5.08;100.00
38163;BME280;23977;53.078;18.248;2023-04-19T04:49:14;101850.19;;;5.19;100.00
38163;BME280;23977;53.078;18.248;2023-04-19T04:51:40;101842.97;;;5.09;100.00
38163;BME280;23977;53.078;18.248;2023-04-19T04:54:05;101744.09;;;4.45;100.00
38163;BME280;23977;53.078;18.248;2023-04-19T04:56:31;101811.25;;;4.96;100.00
38163;BME280;23977;53.078;18.248;2023-04-19T04:58:57;101817.22;;;5.12;100.00
38163;BME280;23977;53.078;18.248;2023-04-19T05:01:23;101863.66;;;5.56;100.00
38163;BME280;23977;53.078;18.248;2023-04-19T05:03:49;101782.38;;;5.07;100.00
38163;BME280;23977;53.078;18.248;2023-04-19T05:06:15;101845.78;;;5.47;100.00
38163;BME280;23977;53.078;18.248;2023-04-19T05:08:44;101858.84;;;5.63;100.00
38163;BME280;23977;53.078;18.248;2023-04-19T05:11:11;101852.72;;;5.75;100.00
38163;BME280;23977;53.078;18.248;2023-04-19T05:13:36;101852.28;;;5.69;100.00
38163;BME280;23977;53.078;18.248;2023-04-19T05:16:02;101782.75;;;5.55;100.00
38163;BME280;23977;53.078;18.248;2023-04-19T05:18:28;101809.53;;;5.77;100.00
38163;BME280;23977;53.078;18.248;2023-04-19T05:20:53;101822.09;;;5.73;100.00
38163;BME280;23977;53.078;18.248;2023-04-19T05:23:19;101840.66;;;5.99;100.00
38163;BME280;23977;53.078;18.248;2023-04-19T05:25:46;101836.38;;;5.83;100.00
38163;BME280;23977;53.078;18.248;2023-04-19T05:28:14;101758.78;;;5.59;100.00
38163;BME280;23977;53.078;18.248;2023-04-19T05:30:39;101848.50;;;6.00;100.00
38163;BME280;23977;53.078;18.248;2023-04-19T05:33:05;101801.38;;;5.67;100.00
38163;BME280;23977;53.078;18.248;2023-04-19T05:35:31;101744.03;;;5.29;100.00
38163;BME280;23977;53.078;18.248;2023-04-19T05:37:56;101794.63;;;5.75;100.00
38163;BME280;23977;53.078;18.248;2023-04-19T05:40:22;101827.69;;;6.08;100.00
38163;BME280;23977;53.078;18.248;2023-04-19T05:42:50;101723.59;;;5.45;100.00
38163;BME280;23977;53.078;18.248;2023-04-19T05:45:16;101757.34;;;5.80;100.00
38163;BME280;23977;53.078;18.248;2023-04-19T05:47:43;101778.09;;;6.12;100.00
38163;BME280;23977;53.078;18.248;2023-04-19T05:50:09;101709.66;;;5.43;100.00
38163;BME280;23977;53.078;18.248;2023-04-19T05:52:35;101812.88;;;6.06;100.00
38163;BME280;23977;53.078;18.248;2023-04-19T05:55:04;101708.59;;;5.46;100.00
38163;BME280;23977;53.078;18.248;2023-04-19T05:57:33;101801.84;;;5.86;100.00
38163;BME280;23977;53.078;18.248;2023-04-19T06:00:04;101817.53;;;6.15;100.00
38163;BME280;23977;53.078;18.248;2023-04-19T06:02:31;101411.19;;;3.65;100.00
38163;BME280;23977;53.078;18.248;2023-04-19T06:05:08;101713.91;;;5.59;100.00
38163;BME280;23977;53.078;18.248;2023-04-19T06:07:38;101650.72;;;5.30;100.00
38163;BME280;23977;53.078;18.248;2023-04-19T06:10:10;101556.69;;;4.76;100.00
38163;BME280;23977;53.078;18.248;2023-04-19T06:12:39;101828.72;;;6.70;100.00
38163;BME280;23977;53.078;18.248;2023-04-19T06:15:05;101824.56;;;6.79;100.00
38163;BME280;23977;53.078;18.248;2023-04-19T06:17:43;101442.56;;;4.35;100.00
38163;BME280;23977;53.078;18.248;2023-04-19T06:20:23;101760.75;;;6.21;100.00
38163;BME280;23977;53.078;18.248;2023-04-19T06:22:56;101626.22;;;5.15;100.00
38163;BME280;23977;53.078;18.248;2023-04-19T06:25:25;101677.34;;;5.52;100.00
38163;BME280;23977;53.078;18.248;2023-04-19T06:27:55;101569.94;;;4.49;100.00
38163;BME280;23977;53.078;18.248;2023-04-19T06:30:30;101557.00;;;4.31;100.00
38163;BME280;23977;53.078;18.248;2023-04-19T06:33:00;101680.06;;;5.25;100.00
38163;BME280;23977;53.078;18.248;2023-04-19T06:35:35;101543.72;;;4.33;100.00
38163;BME280;23977;53.078;18.248;2023-04-19T06:38:08;101577.13;;;4.59;100.00
38163;BME280;23977;53.078;18.248;2023-04-19T06:40:40;101798.22;;;5.87;100.00
38163;BME280;23977;53.078;18.248;2023-04-19T06:43:14;101505.31;;;4.16;100.00
38163;BME280;23977;53.078;18.248;2023-04-19T06:45:43;101779.44;;;5.92;100.00
38163;BME280;23977;53.078;18.248;2023-04-19T06:48:18;101774.88;;;5.81;100.00
38163;BME280;23977;53.078;18.248;2023-04-19T06:50:50;101780.78;;;5.72;100.00
38163;BME280;23977;53.078;18.248;2023-04-19T06:53:20;101613.47;;;4.81;100.00
38163;BME280;23977;53.078;18.248;2023-04-19T06:56:04;101794.06;;;6.10;100.00
38163;BME280;23977;53.078;18.248;2023-04-19T06:58:46;101805.63;;;5.82;100.00
38163;BME280;23977;53.078;18.248;2023-04-19T07:01:19;101788.50;;;5.75;100.00
38163;BME280;23977;53.078;18.248;2023-04-19T07:03:53;101369.84;;;3.25;100.00
38163;BME280;23977;53.078;18.248;2023-04-19T07:06:25;101380.44;;;3.24;100.00
38163;BME280;23977;53.078;18.248;2023-04-19T07:08:55;101780.34;;;5.65;100.00
38163;BME280;23977;53.078;18.248;2023-04-19T07:11:28;101312.06;;;2.82;100.00
38163;BME280;23977;53.078;18.248;2023-04-19T07:14:03;101595.75;;;4.43;100.00
38163;BME280;23977;53.078;18.248;2023-04-19T07:16:35;101798.84;;;5.65;100.00
38163;BME280;23977;53.078;18.248;2023-04-19T07:19:08;101475.19;;;3.65;100.00
38163;BME280;23977;53.078;18.248;2023-04-19T07:21:41;101532.53;;;4.02;100.00
38163;BME280;23977;53.078;18.248;2023-04-19T07:24:08;101365.94;;;2.89;100.00
38163;BME280;23977;53.078;18.248;2023-04-19T07:26:33;101489.81;;;3.69;100.00
38163;BME280;23977;53.078;18.248;2023-04-19T07:28:59;101581.25;;;4.36;100.00
38163;BME280;23977;53.078;18.248;2023-04-19T07:31:27;101773.13;;;5.54;100.00
38163;BME280;23977;53.078;18.248;2023-04-19T07:33:58;101776.59;;;5.42;100.00
38163;BME280;23977;53.078;18.248;2023-04-19T07:36:23;101740.13;;;5.34;100.00
38163;BME280;23977;53.078;18.248;2023-04-19T07:38:52;101706.59;;;4.96;100.00
38163;BME280;23977;53.078;18.248;2023-04-19T07:41:18;101734.31;;;5.16;100.00
38163;BME280;23977;53.078;18.248;2023-04-19T07:43:43;101756.31;;;5.43;100.00
38163;BME280;23977;53.078;18.248;2023-04-19T07:46:14;101630.09;;;4.69;100.00
38163;BME280;23977;53.078;18.248;2023-04-19T07:48:43;101747.00;;;5.37;100.00
38163;BME280;23977;53.078;18.248;2023-04-19T07:51:13;101725.75;;;5.26;100.00
38163;BME280;23977;53.078;18.248;2023-04-19T07:53:41;101751.84;;;5.30;100.00
38163;BME280;23977;53.078;18.248;2023-04-19T07:56:08;101751.41;;;5.24;100.00
38163;BME280;23977;53.078;18.248;2023-04-19T07:58:35;101682.06;;;4.81;100.00
38163;BME280;23977;53.078;18.248;2023-04-19T08:01:00;101744.75;;;5.18;100.00
38163;BME280;23977;53.078;18.248;2023-04-19T08:03:26;101725.94;;;5.10;100.00
38163;BME280;23977;53.078;18.248;2023-04-19T08:05:52;101764.75;;;5.35;100.00
38163;BME280;23977;53.078;18.248;2023-04-19T08:08:18;101745.22;;;5.37;100.00
38163;BME280;23977;53.078;18.248;2023-04-19T08:10:44;101737.81;;;5.30;100.00
38163;BME280;23977;53.078;18.248;2023-04-19T08:13:10;101739.44;;;5.45;100.00
38163;BME280;23977;53.078;18.248;2023-04-19T08:15:36;101742.81;;;5.47;100.00
38163;BME280;23977;53.078;18.248;2023-04-19T08:18:02;101755.72;;;5.52;100.00
38163;BME280;23977;53.078;18.248;2023-04-19T08:20:31;101718.91;;;5.36;100.00
38163;BME280;23977;53.078;18.248;2023-04-19T08:23:00;101698.66;;;5.36;100.00
38163;BME280;23977;53.078;18.248;2023-04-19T08:28:05;101758.06;;;5.82;100.00
38163;BME280;23977;53.078;18.248;2023-04-19T08:30:33;101432.16;;;4.06;100.00
38163;BME280;23977;53.078;18.248;2023-04-19T08:33:03;101335.19;;;3.46;100.00
38163;BME280;23977;53.078;18.248;2023-04-19T08:35:42;101422.72;;;4.17;100.00
38163;BME280;23977;53.078;18.248;2023-04-19T08:38:13;101607.22;;;5.35;100.00
38163;BME280;23977;53.078;18.248;2023-04-19T08:40:56;101361.84;;;3.94;100.00
38163;BME280;23977;53.078;18.248;2023-04-19T08:43:34;101744.34;;;6.28;100.00
38163;BME280;23977;53.078;18.248;2023-04-19T08:46:16;101539.88;;;5.17;100.00
38163;BME280;23977;53.078;18.248;2023-04-19T08:48:43;101457.97;;;4.67;100.00
38163;BME280;23977;53.078;18.248;2023-04-19T08:51:11;101686.63;;;6.22;100.00
38163;BME280;23977;53.078;18.248;2023-04-19T08:53:43;101731.44;;;6.74;100.00
38163;BME280;23977;53.078;18.248;2023-04-19T08:56:14;101625.53;;;6.14;100.00
38163;BME280;23977;53.078;18.248;2023-04-19T08:58:48;101544.25;;;5.68;100.00
38163;BME280;23977;53.078;18.248;2023-04-19T09:01:17;101504.56;;;5.56;100.00
38163;BME280;23977;53.078;18.248;2023-04-19T09:03:45;101736.75;;;7.22;100.00
38163;BME280;23977;53.078;18.248;2023-04-19T09:06:22;101393.63;;;5.08;100.00
38163;BME280;23977;53.078;18.248;2023-04-19T09:09:25;101600.00;;;6.63;100.00
38163;BME280;23977;53.078;18.248;2023-04-19T09:11:55;101711.00;;;7.24;100.00
38163;BME280;23977;53.078;18.248;2023-04-19T09:14:24;101320.81;;;4.93;100.00
38163;BME280;23977;53.078;18.248;2023-04-19T09:16:51;101639.31;;;6.92;100.00
38163;BME280;23977;53.078;18.248;2023-04-19T09:19:17;101615.03;;;6.98;100.00
38163;BME280;23977;53.078;18.248;2023-04-19T09:21:43;101720.03;;;7.68;100.00
38163;BME280;23977;53.078;18.248;2023-04-19T09:24:10;101698.81;;;7.57;100.00
38163;BME280;23977;53.078;18.248;2023-04-19T09:26:37;101638.09;;;7.31;100.00
38163;BME280;23977;53.078;18.248;2023-04-19T09:29:07;101701.25;;;7.71;100.00
38163;BME280;23977;53.078;18.248;2023-04-19T09:31:35;101697.63;;;7.61;100.00
38163;BME280;23977;53.078;18.248;2023-04-19T09:34:17;101723.69;;;7.90;100.00
38163;BME280;23977;53.078;18.248;2023-04-19T09:36:46;101663.19;;;7.72;100.00
38163;BME280;23977;53.078;18.248;2023-04-19T09:39:29;101713.81;;;8.26;100.00
38163;BME280;23977;53.078;18.248;2023-04-19T09:41:56;101583.72;;;7.50;100.00
38163;BME280;23977;53.078;18.248;2023-04-19T09:44:26;101604.66;;;7.75;100.00
38163;BME280;23977;53.078;18.248;2023-04-19T09:46:53;101636.22;;;8.01;100.00
38163;BME280;23977;53.078;18.248;2023-04-19T09:49:21;101686.06;;;8.41;100.00
38163;BME280;23977;53.078;18.248;2023-04-19T09:51:53;101549.03;;;7.41;100.00
38163;BME280;23977;53.078;18.248;2023-04-19T09:54:22;101716.59;;;8.47;100.00
38163;BME280;23977;53.078;18.248;2023-04-19T09:56:49;101693.56;;;8.36;100.00
38163;BME280;23977;53.078;18.248;2023-04-19T09:59:15;101657.03;;;8.17;100.00
38163;BME280;23977;53.078;18.248;2023-04-19T10:01:53;101706.34;;;8.54;100.00
38163;BME280;23977;53.078;18.248;2023-04-19T10:04:20;101639.59;;;8.03;100.00
38163;BME280;23977;53.078;18.248;2023-04-19T10:06:52;101677.91;;;8.22;100.00
38163;BME280;23977;53.078;18.248;2023-04-19T10:09:18;101699.59;;;8.49;100.00
38163;BME280;23977;53.078;18.248;2023-04-19T10:11:47;101489.19;;;7.28;100.00
38163;BME280;23977;53.078;18.248;2023-04-19T10:14:14;101687.66;;;8.55;100.00
38163;BME280;23977;53.078;18.248;2023-04-19T10:16:40;101664.84;;;8.41;100.00
38163;BME280;23977;53.078;18.248;2023-04-19T10:19:11;101685.94;;;8.54;100.00
38163;BME280;23977;53.078;18.248;2023-04-19T10:21:40;101676.69;;;8.48;100.00
38163;BME280;23977;53.078;18.248;2023-04-19T10:24:07;101692.34;;;8.51;100.00
38163;BME280;23977;53.078;18.248;2023-04-19T10:29:58;101691.00;;;8.57;100.00
38163;BME280;23977;53.078;18.248;2023-04-19T10:32:29;101641.13;;;8.17;100.00
38163;BME280;23977;53.078;18.248;2023-04-19T10:35:01;101623.69;;;8.03;100.00
38163;BME280;23977;53.078;18.248;2023-04-19T10:37:30;101686.56;;;8.35;100.00
38163;BME280;23977;53.078;18.248;2023-04-19T10:39:56;101635.94;;;8.27;100.00
38163;BME280;23977;53.078;18.248;2023-04-19T10:42:21;101627.75;;;8.19;100.00
38163;BME280;23977;53.078;18.248;2023-04-19T10:47:50;101673.16;;;8.59;100.00
38163;BME280;23977;53.078;18.248;2023-04-19T10:50:17;101674.22;;;8.68;100.00
38163;BME280;23977;53.078;18.248;2023-04-19T10:52:42;101667.25;;;8.56;100.00
38163;BME280;23977;53.078;18.248;2023-04-19T10:55:08;101679.56;;;8.57;100.00
38163;BME280;23977;53.078;18.248;2023-04-19T10:57:59;101683.38;;;8.75;100.00
38163;BME280;23977;53.078;18.248;2023-04-19T11:00:25;101686.28;;;8.61;100.00
38163;BME280;23977;53.078;18.248;2023-04-19T11:02:56;101685.22;;;8.63;100.00
38163;BME280;23977;53.078;18.248;2023-04-19T11:05:21;101682.56;;;8.63;100.00
38163;BME280;23977;53.078;18.248;2023-04-19T11:07:47;101668.69;;;8.60;100.00
38163;BME280;23977;53.078;18.248;2023-04-19T11:10:27;101686.84;;;8.76;100.00
38163;BME280;23977;53.078;18.248;2023-04-19T11:12:53;101642.16;;;8.60;100.00
38163;BME280;23977;53.078;18.248;2023-04-19T11:15:21;101685.31;;;8.73;100.00
38163;BME280;23977;53.078;18.248;2023-04-19T11:17:51;101572.31;;;8.15;100.00
38163;BME280;23977;53.078;18.248;2023-04-19T11:20:21;101682.22;;;8.57;100.00
38163;BME280;23977;53.078;18.248;2023-04-19T11:22:47;101654.72;;;8.35;100.00
38163;BME280;23977;53.078;18.248;2023-04-19T11:25:18;101696.47;;;8.44;100.00
38163;BME280;23977;53.078;18.248;2023-04-19T11:27:47;101698.34;;;8.42;100.00
38163;BME280;23977;53.078;18.248;2023-04-19T11:30:17;101664.88;;;8.19;100.00
38163;BME280;23977;53.078;18.248;2023-04-19T11:32:50;101644.91;;;8.03;100.00
38163;BME280;23977;53.078;18.248;2023-04-19T11:35:23;101681.50;;;8.21;100.00
38163;BME280;23977;53.078;18.248;2023-04-19T11:37:50;101696.47;;;8.33;100.00
38163;BME280;23977;53.078;18.248;2023-04-19T11:40:17;101703.78;;;8.41;100.00
38163;BME280;23977;53.078;18.248;2023-04-19T11:42:44;101683.81;;;8.48;100.00
38163;BME280;23977;53.078;18.248;2023-04-19T11:45:10;101673.91;;;8.50;100.00
38163;BME280;23977;53.078;18.248;2023-04-19T11:47:47;101692.34;;;8.29;100.00
38163;BME280;23977;53.078;18.248;2023-04-19T11:50:32;101715.03;;;8.33;100.00
38163;BME280;23977;53.078;18.248;2023-04-19T11:52:58;101715.25;;;8.07;100.00
38163;BME280;23977;53.078;18.248;2023-04-19T11:55:24;101718.41;;;8.01;100.00
38163;BME280;23977;53.078;18.248;2023-04-19T11:57:51;101727.06;;;7.92;100.00
38163;BME280;23977;53.078;18.248;2023-04-19T12:00:26;101711.38;;;7.89;100.00
38163;BME280;23977;53.078;18.248;2023-04-19T12:02:52;101722.94;;;7.76;100.00
38163;BME280;23977;53.078;18.248;2023-04-19T12:05:18;101654.81;;;7.32;100.00
38163;BME280;23977;53.078;18.248;2023-04-19T12:08:16;101718.63;;;7.87;100.00
38163;BME280;23977;53.078;18.248;2023-04-19T12:10:54;101713.09;;;7.90;100.00
38163;BME280;23977;53.078;18.248;2023-04-19T12:13:21;101716.69;;;7.89;100.00
38163;BME280;23977;53.078;18.248;2023-04-19T12:15:49;101646.53;;;7.36;100.00
38163;BME280;23977;53.078;18.248;2023-04-19T12:18:14;101696.22;;;7.80;100.00
38163;BME280;23977;53.078;18.248;2023-04-19T12:20:45;101716.13;;;8.08;100.00
38163;BME280;23977;53.078;18.248;2023-04-19T12:23:15;101708.28;;;8.06;100.00
38163;BME280;23977;53.078;18.248;2023-04-19T12:25:42;101721.78;;;8.14;100.00
38163;BME280;23977;53.078;18.248;2023-04-19T12:28:09;101723.09;;;8.31;100.00
38163;BME280;23977;53.078;18.248;2023-04-19T12:30:35;101685.13;;;8.08;100.00
38163;BME280;23977;53.078;18.248;2023-04-19T12:33:03;101721.53;;;8.51;100.00
38163;BME280;23977;53.078;18.248;2023-04-19T12:35:29;101654.97;;;8.21;100.00
38163;BME280;23977;53.078;18.248;2023-04-19T12:37:59;101715.53;;;8.49;100.00
38163;BME280;23977;53.078;18.248;2023-04-19T12:40:26;101730.56;;;8.49;100.00
38163;BME280;23977;53.078;18.248;2023-04-19T12:42:52;101707.06;;;8.33;100.00
38163;BME280;23977;53.078;18.248;2023-04-19T12:45:19;101691.63;;;8.27;100.00
38163;BME280;23977;53.078;18.248;2023-04-19T12:47:46;101705.72;;;8.27;100.00
38163;BME280;23977;53.078;18.248;2023-04-19T12:50:13;101717.44;;;8.47;100.00
38163;BME280;23977;53.078;18.248;2023-04-19T12:52:41;101700.06;;;8.21;100.00
38163;BME280;23977;53.078;18.248;2023-04-19T12:55:07;101693.09;;;8.20;100.00